Category Name Date Update Time Latitude Longitude Wind Speed Direction Movement Pressure
H1 Jerry 2019-09-19 11:00:00 16.8 -54.4 75 WNW 16 988
H2 Humberto 2019-09-19 11:00:00 36.8 -60.0 110 NE 24 955
TS Jerry 2019-09-19 08:00:00 16.4 -53.9 70 WNW 16 995
TS Jerry 2019-09-19 05:00:00 16.0 -53.2 70 WNW 16 995
H3 Humberto 2019-09-19 05:00:00 35.2 -62.2 125 NE 22 952
TS Jerry 2019-09-19 02:00:00 15.7 -52.5 65 WNW 15 997
H3 Humberto 2019-09-19 02:00:00 34.7 -63.0 125 NE 23 952
TS Jerry 2019-09-18 23:00:00 15.4 -51.8 65 WNW 15 997
H3 Humberto 2019-09-18 23:00:00 34.0 -63.9 120 NE 23 952
TS Jerry 2019-09-18 20:00:00 15.2 -51.2 60 WNW 15 1000
H3 Humberto 2019-09-18 20:00:00 33.4 -65.0 120 ENE 20 952
TS Jerry 2019-09-18 17:00:00 15.0 -50.5 60 WNW 15 1000
H3 Humberto 2019-09-18 17:00:00 33.0 -66.3 120 ENE 20 952
H3 Humberto 2019-09-18 14:00:00 32.4 -67.2 120 ENE 16 952
TS Jerry 2019-09-18 11:00:00 14.6 -49.2 50 WNW 14 1002
H3 Humberto 2019-09-18 11:00:00 32.2 -68.1 120 ENE 16 952
H3 Humberto 2019-09-18 08:00:00 31.8 -68.9 115 ENE 16 951
TS Jerry 2019-09-18 05:00:00 14.1 -47.7 45 WNW 13 1004
H3 Humberto 2019-09-18 05:00:00 31.7 -69.6 115 ENE 16 951
H3 Humberto 2019-09-18 02:00:00 31.5 -70.4 115 ENE 12 951
H3 Humberto 2019-09-17 23:00:00 31.3 -71.0 115 ENE 12 951
H3 Humberto 2019-09-17 20:00:00 31.2 -71.6 115 ENE 12 951
TS Imelda 2019-09-17 17:00:00 29.3 -95.3 40 N 7 1006
H2 Humberto 2019-09-17 17:00:00 31.0 -72.3 105 ENE 12 960
H2 Humberto 2019-09-17 14:00:00 30.8 -72.9 100 ENE 9 961
TS Imelda 2019-09-17 14:00:00 28.9 -95.3 40 N 7 1009
H2 Humberto 2019-09-17 11:00:00 30.7 -73.5 100 ENE 8 961
H2 Humberto 2019-09-17 08:00:00 30.6 -74.0 100 ENE 8 961
H1 Humberto 2019-09-17 05:00:00 30.6 -74.3 90 ENE 8 966
H1 Humberto 2019-09-17 02:00:00 30.5 -74.7 90 ENE 8 966